Time;durP1;ratioP1;P1;durP2;ratioP2;P2;SDS_P1;SDS_P2;PMS_P1;PMS_P2;Temp;Humidity;BMP_temperature;BMP_pressure;BME280_temperature;BME280_humidity;BME280_pressure;Samples;Min_cycle;Max_cycle;Signal;HPM_P1;HPM_P2
2023/05/16 00:01:01;;;;;;;7.83;1.87;;;9.40;99.90;;;;;;5112612;28;20210;-80
2023/05/16 00:03:29;;;;;;;10.27;2.67;;;9.30;99.90;;;;;;5112117;28;20668;-79
2023/05/16 00:05:56;;;;;;;12.37;2.27;;;9.30;99.90;;;;;;5112253;28;20204;-81
2023/05/16 00:08:23;;;;;;;9.47;2.40;;;9.40;99.90;;;;;;5112521;28;20222;-80
2023/05/16 00:10:50;;;;;;;8.53;1.87;;;9.30;99.90;;;;;;5112617;28;20195;-80
2023/05/16 00:13:23;;;;;;;10.40;2.30;;;9.30;99.90;;;;;;5099160;28;20613;-79
2023/05/16 00:15:50;;;;;;;11.80;2.30;;;9.30;99.90;;;;;;5092235;28;20189;-78
2023/05/16 00:18:18;;;;;;;10.80;2.30;;;9.30;99.90;;;;;;5111750;28;20228;-81
2023/05/16 00:20:45;;;;;;;14.43;2.43;;;9.30;99.90;;;;;;5112399;28;20249;-81
2023/05/16 00:23:12;;;;;;;12.00;2.73;;;9.40;99.90;;;;;;5095349;28;20599;-80
2023/05/16 00:25:39;;;;;;;11.57;2.70;;;9.40;99.90;;;;;;5103239;28;20199;-78
2023/05/16 00:28:07;;;;;;;9.57;1.90;;;9.30;99.90;;;;;;5111654;28;20219;-79
2023/05/16 00:30:35;;;;;;;11.43;2.80;;;9.30;99.90;;;;;;5112660;28;20235;-80
2023/05/16 00:33:02;;;;;;;10.70;2.33;;;9.30;99.90;;;;;;5113825;28;20770;-79
2023/05/16 00:35:29;;;;;;;10.70;2.33;;;9.20;99.90;;;;;;5110927;28;20192;-80
2023/05/16 00:37:56;;;;;;;14.50;3.43;;;9.20;99.90;;;;;;5108290;28;20227;-81
2023/05/16 00:40:22;;;;;;;17.93;2.43;;;9.20;99.90;;;;;;5115867;28;20206;-79
2023/05/16 00:42:49;;;;;;;12.10;2.87;;;9.20;99.90;;;;;;5105246;28;20683;-80
2023/05/16 00:45:16;;;;;;;15.93;2.53;;;9.20;99.90;;;;;;5103618;28;20200;-80
2023/05/16 00:47:44;;;;;;;11.53;2.40;;;9.20;99.90;;;;;;5115338;28;20227;-79
2023/05/16 00:50:12;;;;;;;8.07;2.10;;;9.20;99.90;;;;;;5115760;28;20200;-80
2023/05/16 00:52:39;;;;;;;13.50;2.47;;;9.10;99.90;;;;;;5097115;28;20316;-80
2023/05/16 00:55:07;;;;;;;9.17;2.77;;;9.10;99.90;;;;;;5095480;28;20755;-81
2023/05/16 00:57:34;;;;;;;16.93;2.30;;;9.20;99.90;;;;;;5095801;28;20313;-79
2023/05/16 01:00:01;;;;;;;10.83;2.30;;;9.20;99.90;;;;;;5095349;28;20204;-80
2023/05/16 01:02:29;;;;;;;9.53;2.13;;;9.20;99.90;;;;;;5094560;28;20236;-79
2023/05/16 01:04:58;;;;;;;9.33;1.90;;;9.20;99.90;;;;;;5095576;28;20542;-80
2023/05/16 01:07:25;;;;;;;7.53;2.27;;;9.10;99.90;;;;;;5094409;28;20199;-79
2023/05/16 01:09:52;;;;;;;5.03;1.80;;;9.20;99.90;;;;;;5094963;28;20253;-79
2023/05/16 01:12:29;;;;;;;9.73;2.03;;;9.10;99.90;;;;;;5114745;28;20292;-80
2023/05/16 01:15:05;;;;;;;8.03;2.00;;;9.20;99.90;;;;;;5114853;28;20199;-79
2023/05/16 01:17:40;;;;;;;11.53;2.17;;;9.10;99.90;;;;;;5115115;28;20240;-79
2023/05/16 01:20:20;;;;;;;8.23;1.93;;;9.10;99.90;;;;;;5115826;28;20282;-81
2023/05/16 01:23:03;;;;;;;7.53;1.60;;;9.10;99.90;;;;;;5106784;28;20211;-80
2023/05/16 01:25:52;;;;;;;7.83;1.80;;;9.20;99.90;;;;;;5094942;28;20313;-80
2023/05/16 01:28:20;;;;;;;10.50;1.80;;;9.20;99.90;;;;;;5111577;28;20290;-80
2023/05/16 01:30:47;;;;;;;11.60;1.80;;;9.20;99.90;;;;;;5115228;28;20874;-81
2023/05/16 01:33:14;;;;;;;9.37;2.30;;;9.10;99.90;;;;;;5114235;28;20207;-79
2023/05/16 01:35:51;;;;;;;6.87;1.70;;;9.10;99.90;;;;;;5114568;28;20202;-80
2023/05/16 01:38:25;;;;;;;13.63;2.60;;;9.10;99.90;;;;;;5114704;28;20199;-79
2023/05/16 01:40:59;;;;;;;8.23;1.83;;;9.10;99.90;;;;;;5114497;28;20211;-79
2023/05/16 01:43:36;;;;;;;10.17;2.17;;;9.10;99.90;;;;;;5115104;28;20475;-79
2023/05/16 01:46:10;;;;;;;6.90;2.00;;;9.20;99.90;;;;;;5114990;28;20198;-80
2023/05/16 01:48:44;;;;;;;7.90;1.83;;;9.10;99.90;;;;;;5115001;28;20269;-80
2023/05/16 01:51:12;;;;;;;11.90;2.20;;;9.20;99.90;;;;;;5113740;28;20208;-82
2023/05/16 01:53:39;;;;;;;9.10;1.97;;;9.20;99.90;;;;;;5114798;28;20548;-80
2023/05/16 01:56:11;;;;;;;9.57;2.57;;;9.20;99.90;;;;;;5114935;28;20275;-80
2023/05/16 01:58:40;;;;;;;11.90;2.37;;;9.20;99.90;;;;;;5113870;28;20282;-80
2023/05/16 02:01:07;;;;;;;11.23;2.20;;;9.10;99.90;;;;;;5114597;28;20200;-80
2023/05/16 02:03:34;;;;;;;6.80;1.77;;;9.00;99.90;;;;;;5114369;28;20200;-80
2023/05/16 02:06:01;;;;;;;11.37;2.23;;;9.10;99.90;;;;;;5114575;28;20330;-79
2023/05/16 02:08:29;;;;;;;11.30;2.33;;;9.10;99.90;;;;;;5113950;28;20624;-77
2023/05/16 02:10:56;;;;;;;7.43;1.80;;;9.00;99.90;;;;;;5104490;28;20514;-81
2023/05/16 02:13:22;;;;;;;12.10;2.20;;;9.10;99.90;;;;;;5094256;28;20203;-77
2023/05/16 02:15:51;;;;;;;13.27;3.40;;;9.10;99.90;;;;;;5093830;28;20211;-80
2023/05/16 02:18:18;;;;;;;8.60;1.97;;;9.20;99.90;;;;;;5092760;28;20294;-79
2023/05/16 02:20:46;;;;;;;8.87;1.90;;;9.20;99.90;;;;;;5105115;28;20210;-81
2023/05/16 02:23:13;;;;;;;11.00;2.00;;;9.20;99.90;;;;;;5113712;28;20203;-79
2023/05/16 02:25:40;;;;;;;6.47;1.70;;;9.20;99.90;;;;;;5113120;28;20204;-77
2023/05/16 02:28:07;;;;;;;8.23;1.83;;;9.20;99.90;;;;;;5113523;28;20623;-79
2023/05/16 02:30:34;;;;;;;6.83;1.67;;;9.20;99.90;;;;;;5097639;28;20563;-79
2023/05/16 02:33:02;;;;;;;13.57;2.43;;;9.20;99.90;;;;;;5092607;28;20207;-80
2023/05/16 02:35:29;;;;;;;11.73;2.20;;;9.20;99.90;;;;;;5093475;28;20196;-79
2023/05/16 02:37:56;;;;;;;8.50;1.93;;;9.20;99.90;;;;;;5111832;28;20303;-80
2023/05/16 02:40:23;;;;;;;10.33;2.10;;;9.20;99.90;;;;;;5112817;28;20664;-79
2023/05/16 02:42:50;;;;;;;12.13;2.07;;;9.20;99.90;;;;;;5113638;28;20192;-79
2023/05/16 02:45:17;;;;;;;6.90;1.50;;;9.30;99.90;;;;;;5113766;28;20200;-80
2023/05/16 02:47:44;;;;;;;9.67;2.07;;;9.40;99.90;;;;;;5113345;28;20278;-80
2023/05/16 02:50:12;;;;;;;8.40;2.00;;;9.40;99.90;;;;;;5113319;28;20216;-79
2023/05/16 02:52:39;;;;;;;8.63;2.00;;;9.30;99.90;;;;;;5112885;28;20223;-79
2023/05/16 02:55:07;;;;;;;9.57;2.67;;;9.30;99.90;;;;;;5112006;28;20312;-79
2023/05/16 02:57:34;;;;;;;8.20;2.17;;;9.30;99.90;;;;;;5113050;28;20194;-78
2023/05/16 03:00:01;;;;;;;11.40;2.30;;;9.40;99.90;;;;;;5104816;28;20196;-78
2023/05/16 03:02:28;;;;;;;7.90;1.83;;;9.30;99.90;;;;;;5092653;28;20589;-79
2023/05/16 03:04:54;;;;;;;8.97;1.90;;;9.20;99.90;;;;;;5092604;28;20266;-80
2023/05/16 03:07:23;;;;;;;8.20;1.77;;;9.20;99.90;;;;;;5092082;28;20678;-79
2023/05/16 03:09:50;;;;;;;9.70;1.63;;;9.30;99.90;;;;;;5092472;28;20259;-78
2023/05/16 03:12:17;;;;;;;5.83;2.07;;;9.20;99.90;;;;;;5111235;28;20289;-80
2023/05/16 03:14:44;;;;;;;10.07;2.27;;;9.30;99.90;;;;;;5112337;28;20235;-80
2023/05/16 03:17:11;;;;;;;7.47;1.70;;;9.30;99.90;;;;;;5113043;28;20196;-78
2023/05/16 03:19:38;;;;;;;9.90;2.40;;;9.40;99.90;;;;;;5112972;28;20224;-80
2023/05/16 03:22:05;;;;;;;9.53;1.60;;;9.40;99.90;;;;;;5112226;28;20221;-80
2023/05/16 03:24:33;;;;;;;5.37;1.73;;;9.40;99.90;;;;;;5112835;28;20200;-78
2023/05/16 03:27:00;;;;;;;7.10;1.67;;;9.30;99.90;;;;;;5112853;28;20280;-79
2023/05/16 03:29:27;;;;;;;9.33;1.57;;;9.30;99.90;;;;;;5112115;28;20662;-78
2023/05/16 03:31:54;;;;;;;11.27;2.33;;;9.30;99.90;;;;;;5112361;28;20237;-78
2023/05/16 03:34:21;;;;;;;11.90;2.10;;;9.30;99.90;;;;;;5112599;28;20203;-80
2023/05/16 03:36:48;;;;;;;7.77;2.17;;;9.30;99.90;;;;;;5112359;28;20514;-80
2023/05/16 03:39:16;;;;;;;6.80;1.77;;;9.30;99.90;;;;;;5112277;28;20213;-80
2023/05/16 03:41:44;;;;;;;9.83;1.80;;;9.40;99.90;;;;;;5112909;28;20235;-81
2023/05/16 03:44:11;;;;;;;8.83;1.63;;;9.40;99.90;;;;;;5112185;28;20200;-79
2023/05/16 03:46:38;;;;;;;7.87;1.77;;;9.40;99.90;;;;;;5112047;28;20210;-79
2023/05/16 03:49:05;;;;;;;10.53;1.70;;;9.30;99.90;;;;;;5112485;28;20222;-78
2023/05/16 03:51:33;;;;;;;13.40;2.37;;;9.30;99.90;;;;;;5092997;28;20200;-81
2023/05/16 03:53:59;;;;;;;6.23;1.50;;;9.30;99.90;;;;;;5091985;28;20577;-80
2023/05/16 03:56:26;;;;;;;10.63;2.83;;;9.30;99.90;;;;;;5091479;28;20232;-80
2023/05/16 03:58:55;;;;;;;5.23;2.13;;;9.30;99.90;;;;;;5092836;28;20193;-79
2023/05/16 04:01:22;;;;;;;11.27;2.33;;;9.30;99.90;;;;;;5092465;28;20192;-81
2023/05/16 04:03:49;;;;;;;6.93;1.80;;;9.40;99.90;;;;;;5105828;28;20196;-79
2023/05/16 04:06:16;;;;;;;8.37;2.00;;;9.40;99.90;;;;;;5112864;28;20230;-80
2023/05/16 04:08:43;;;;;;;8.37;1.93;;;9.40;99.90;;;;;;5115537;28;20228;-80
2023/05/16 04:11:10;;;;;;;12.37;1.90;;;9.40;99.90;;;;;;5114921;28;20249;-81
2023/05/16 04:13:37;;;;;;;9.10;1.50;;;9.50;99.90;;;;;;5113991;28;20208;-79
2023/05/16 04:16:06;;;;;;;8.20;1.63;;;9.50;99.90;;;;;;5107811;28;20627;-80
2023/05/16 04:18:33;;;;;;;10.40;2.27;;;9.50;99.90;;;;;;5095832;28;20232;-79
2023/05/16 04:21:00;;;;;;;6.33;1.30;;;9.60;99.90;;;;;;5111602;28;20635;-81
2023/05/16 04:23:27;;;;;;;6.83;1.40;;;9.60;99.90;;;;;;5116449;28;20200;-81
2023/05/16 04:25:55;;;;;;;10.93;1.87;;;9.60;99.90;;;;;;5115464;28;20291;-79
2023/05/16 04:28:22;;;;;;;6.23;1.63;;;9.70;99.90;;;;;;5116666;28;20290;-82
2023/05/16 04:30:49;;;;;;;11.93;1.87;;;9.70;99.90;;;;;;5116330;28;20573;-80
2023/05/16 04:33:17;;;;;;;6.70;1.73;;;9.80;99.90;;;;;;5115872;28;20200;-81
2023/05/16 04:35:44;;;;;;;5.43;1.40;;;9.80;99.90;;;;;;5115639;28;20626;-81
2023/05/16 04:38:11;;;;;;;8.53;1.63;;;9.90;99.90;;;;;;5115644;28;20303;-78
2023/05/16 04:40:39;;;;;;;8.80;1.70;;;9.90;99.90;;;;;;5105663;28;20230;-80
2023/05/16 04:43:06;;;;;;;8.60;2.10;;;10.00;99.90;;;;;;5109522;28;20290;-82
2023/05/16 04:45:33;;;;;;;13.17;2.87;;;10.00;99.90;;;;;;5115291;28;20202;-80
2023/05/16 04:48:01;;;;;;;7.60;1.50;;;10.10;99.90;;;;;;5115812;28;20645;-80
2023/05/16 04:50:29;;;;;;;7.73;1.63;;;10.20;99.90;;;;;;5115952;28;20226;-80
2023/05/16 04:52:56;;;;;;;7.33;1.63;;;10.20;99.90;;;;;;5115152;28;20220;-80
2023/05/16 04:55:23;;;;;;;5.57;1.57;;;10.30;99.90;;;;;;5115147;28;20207;-80
2023/05/16 04:57:50;;;;;;;8.93;2.00;;;10.30;99.90;;;;;;5115365;28;20204;-79
2023/05/16 05:00:18;;;;;;;9.60;1.70;;;10.30;99.90;;;;;;5114807;28;20204;-80
2023/05/16 05:02:45;;;;;;;10.87;1.40;;;10.30;99.90;;;;;;5115770;28;20584;-79
2023/05/16 05:05:12;;;;;;;6.10;1.80;;;10.30;99.90;;;;;;5115279;28;20688;-80
2023/05/16 05:07:41;;;;;;;6.93;1.23;;;10.40;99.90;;;;;;5114881;28;20200;-80
2023/05/16 05:10:10;;;;;;;6.77;1.30;;;10.40;99.90;;;;;;5115302;28;20218;-81
2023/05/16 05:12:37;;;;;;;6.77;1.77;;;10.50;99.90;;;;;;5115474;28;20196;-79
2023/05/16 05:15:05;;;;;;;7.87;1.23;;;10.50;99.90;;;;;;5099632;28;20207;-83
2023/05/16 05:17:32;;;;;;;6.43;1.90;;;10.60;99.90;;;;;;5095064;28;20201;-81
2023/05/16 05:19:59;;;;;;;8.23;2.37;;;10.70;99.90;;;;;;5074342;28;20194;-82
2023/05/16 05:22:25;;;;;;;6.83;1.53;;;10.80;99.90;;;;;;5074330;28;20225;-80
2023/05/16 05:24:54;;;;;;;6.33;1.67;;;10.80;99.90;;;;;;5074541;28;20212;-80
2023/05/16 05:27:21;;;;;;;5.50;1.30;;;10.90;99.90;;;;;;5074832;28;20244;-77
2023/05/16 05:29:48;;;;;;;7.00;1.33;;;11.00;99.90;;;;;;5074272;28;20304;-80
2023/05/16 05:32:15;;;;;;;7.97;1.60;;;11.30;99.90;;;;;;5055114;28;20198;-78
2023/05/16 05:34:42;;;;;;;8.50;2.10;;;11.40;99.90;;;;;;5061346;28;20512;-80
2023/05/16 05:37:09;;;;;;;9.10;1.57;;;11.60;99.90;;;;;;5074594;28;20658;-81
2023/05/16 05:39:36;;;;;;;7.03;2.03;;;11.60;99.90;;;;;;5059894;28;20201;-81
2023/05/16 05:42:04;;;;;;;5.90;1.27;;;11.50;99.90;;;;;;5054103;28;20598;-80
2023/05/16 05:44:32;;;;;;;4.47;1.37;;;11.60;99.90;;;;;;5054584;28;20301;-79
2023/05/16 05:46:59;;;;;;;10.17;2.80;;;11.80;99.90;;;;;;5070791;28;20254;-81
2023/05/16 05:49:27;;;;;;;9.90;2.20;;;11.90;99.90;;;;;;5074023;28;20217;-83
2023/05/16 05:51:54;;;;;;;9.33;1.60;;;12.20;99.90;;;;;;5074851;28;20229;-86
2023/05/16 05:54:21;;;;;;;10.23;1.70;;;12.50;99.90;;;;;;5074334;28;20762;-83
2023/05/16 05:56:48;;;;;;;9.37;1.40;;;12.60;99.90;;;;;;5074414;28;20688;-82
2023/05/16 05:59:16;;;;;;;3.90;1.10;;;12.60;99.90;;;;;;5074761;28;20207;-83
2023/05/16 06:01:43;;;;;;;3.80;1.20;;;12.60;99.90;;;;;;5074463;28;20197;-82
2023/05/16 06:04:11;;;;;;;5.90;1.40;;;12.60;99.90;;;;;;5074357;28;20199;-82
2023/05/16 06:06:38;;;;;;;6.60;1.70;;;12.70;99.90;;;;;;5074305;28;20274;-83
2023/05/16 06:09:05;;;;;;;6.43;1.30;;;12.90;99.90;;;;;;5074247;28;20201;-82
2023/05/16 06:11:32;;;;;;;7.63;1.80;;;13.00;99.90;;;;;;5073688;28;20661;-81
2023/05/16 06:13:59;;;;;;;7.27;1.97;;;13.00;99.90;;;;;;5074211;28;20211;-84
2023/05/16 06:16:27;;;;;;;6.07;1.40;;;12.90;99.90;;;;;;5074687;28;20240;-82
2023/05/16 06:18:54;;;;;;;7.10;1.30;;;12.70;99.90;;;;;;5084800;28;20271;-83
2023/05/16 06:21:21;;;;;;;8.73;1.30;;;12.80;99.90;;;;;;5094716;28;20197;-82
2023/05/16 06:23:48;;;;;;;6.40;1.30;;;13.00;99.90;;;;;;5102733;28;20210;-80
2023/05/16 06:26:15;;;;;;;6.73;1.80;;;13.20;99.90;;;;;;5115031;28;20295;-81
2023/05/16 06:28:42;;;;;;;5.30;1.60;;;13.30;99.90;;;;;;5114268;28;20210;-81
2023/05/16 06:31:09;;;;;;;8.73;1.57;;;13.40;99.90;;;;;;5113538;28;20216;-83
2023/05/16 06:33:37;;;;;;;4.90;1.30;;;13.50;99.90;;;;;;5113568;28;20207;-79
2023/05/16 06:36:04;;;;;;;6.77;1.30;;;13.70;99.90;;;;;;5095525;28;20291;-81
2023/05/16 06:38:31;;;;;;;5.78;1.25;;;13.70;99.90;;;;;;5092837;28;20196;-80
2023/05/16 06:40:58;;;;;;;4.50;1.20;;;13.70;99.90;;;;;;5109204;28;20196;-81
2023/05/16 06:43:25;;;;;;;5.30;1.50;;;13.50;99.90;;;;;;5114671;28;20204;-82
2023/05/16 06:45:52;;;;;;;4.03;1.30;;;13.60;99.90;;;;;;5114014;28;20476;-83
2023/05/16 06:48:19;;;;;;;4.30;1.43;;;13.80;99.90;;;;;;5100852;28;20231;-82
2023/05/16 06:50:50;;;;;;;9.07;1.60;;;14.10;99.90;;;;;;5099676;28;20226;-81
2023/05/16 06:53:17;;;;;;;6.90;1.57;;;14.30;99.90;;;;;;5110667;28;20637;-84
2023/05/16 06:55:44;;;;;;;12.60;2.17;;;14.20;99.90;;;;;;5098910;28;20205;-80
2023/05/16 06:58:11;;;;;;;7.23;1.27;;;14.10;99.90;;;;;;5107864;28;20233;-78
2023/05/16 07:00:38;;;;;;;5.25;1.27;;;14.00;99.90;;;;;;5106200;28;20200;-83
2023/05/16 07:03:05;;;;;;;6.50;1.17;;;13.90;99.90;;;;;;5104466;28;20211;-82
2023/05/16 07:05:32;;;;;;;4.13;1.25;;;14.10;99.90;;;;;;5112468;28;20223;-83
2023/05/16 07:08:01;;;;;;;5.25;1.45;;;14.40;99.90;;;;;;5108007;28;20220;-82
2023/05/16 07:10:27;;;;;;;6.35;1.20;;;14.70;99.90;;;;;;5110794;28;20215;-81
2023/05/16 07:12:55;;;;;;;6.13;1.58;;;14.60;99.90;;;;;;5102635;28;20499;-80
2023/05/16 07:15:22;;;;;;;6.30;1.58;;;14.60;99.90;;;;;;5110784;28;20211;-82
2023/05/16 07:17:49;;;;;;;6.65;1.38;;;14.80;99.90;;;;;;5110203;28;20198;-83
2023/05/16 07:20:16;;;;;;;7.93;1.67;;;15.00;99.90;;;;;;5111866;28;20294;-79
2023/05/16 07:22:43;;;;;;;5.97;1.48;;;15.00;99.90;;;;;;5112291;28;20283;-81
2023/05/16 07:25:13;;;;;;;6.13;1.67;;;15.00;99.90;;;;;;5111379;28;20287;-83
2023/05/16 07:27:43;;;;;;;6.40;1.48;;;14.80;99.90;;;;;;5109714;28;20195;-80
2023/05/16 07:30:11;;;;;;;6.38;1.25;;;14.80;99.90;;;;;;5110156;28;20223;-85
2023/05/16 07:32:38;;;;;;;4.45;1.20;;;14.80;99.90;;;;;;5100843;28;20281;-81
2023/05/16 07:35:05;;;;;;;6.60;1.50;;;14.90;99.90;;;;;;5110858;28;20818;-81
2023/05/16 07:37:32;;;;;;;7.35;1.52;;;15.00;99.90;;;;;;5103325;28;20600;-82
2023/05/16 07:39:59;;;;;;;6.35;1.60;;;15.00;99.90;;;;;;5111373;28;20284;-81
2023/05/16 07:42:27;;;;;;;5.43;1.15;;;14.60;99.90;;;;;;5111412;28;20744;-80
2023/05/16 07:44:55;;;;;;;7.35;1.55;;;14.60;99.90;;;;;;5114167;28;20292;-80
2023/05/16 07:47:22;;;;;;;6.45;1.70;;;14.80;99.90;;;;;;5113865;28;20674;-80
2023/05/16 07:49:49;;;;;;;5.03;1.70;;;15.00;99.90;;;;;;5116364;27;20269;-83
2023/05/16 07:52:16;;;;;;;6.35;1.63;;;15.20;99.90;;;;;;5116278;28;20215;-82
2023/05/16 07:54:43;;;;;;;6.05;1.65;;;15.40;99.90;;;;;;5112667;28;20192;-82
2023/05/16 07:57:11;;;;;;;4.85;1.42;;;15.20;99.90;;;;;;5109743;28;20215;-82
2023/05/16 07:59:39;;;;;;;7.72;1.70;;;15.20;99.90;;;;;;5111389;28;20287;-80
2023/05/16 08:02:06;;;;;;;8.20;1.25;;;15.50;99.90;;;;;;5114083;28;20227;-81
2023/05/16 08:04:33;;;;;;;6.95;1.90;;;15.50;99.90;;;;;;5113803;28;20291;-81
2023/05/16 08:07:00;;;;;;;4.60;1.30;;;15.40;99.90;;;;;;5112612;28;20202;-82
2023/05/16 08:09:27;;;;;;;7.32;2.05;;;15.00;99.90;;;;;;5110977;28;20643;-82
2023/05/16 08:11:54;;;;;;;4.57;1.58;;;14.80;99.90;;;;;;5103111;28;20264;-81
2023/05/16 08:14:21;;;;;;;4.63;1.60;;;14.90;99.90;;;;;;5116082;27;20659;-81
2023/05/16 08:16:49;;;;;;;6.25;1.25;;;14.90;99.90;;;;;;5114610;28;20202;-83
2023/05/16 08:19:16;;;;;;;2.60;0.90;;;14.60;99.90;;;;;;5118111;27;20762;-81
2023/05/16 08:21:42;;;;;;;5.10;1.75;;;14.50;99.90;;;;;;5110751;28;20230;-83
2023/05/16 08:24:10;;;;;;;4.18;1.30;;;14.70;99.90;;;;;;5113624;28;20203;-86
2023/05/16 08:26:37;;;;;;;4.80;1.30;;;14.80;99.90;;;;;;5114725;28;20204;-82
2023/05/16 08:29:04;;;;;;;3.67;1.10;;;15.10;99.90;;;;;;5116864;28;20229;-84
2023/05/16 08:31:31;;;;;;;6.28;1.30;;;15.40;99.90;;;;;;5116821;28;20255;-80
2023/05/16 08:34:00;;;;;;;5.15;1.00;;;15.80;99.90;;;;;;5116766;28;20200;-82
2023/05/16 08:36:27;;;;;;;5.78;1.75;;;16.00;99.90;;;;;;5117019;28;20196;-82
2023/05/16 08:38:54;;;;;;;4.05;1.00;;;16.10;99.90;;;;;;5116530;28;20279;-80
2023/05/16 08:41:21;;;;;;;4.40;1.50;;;16.10;99.90;;;;;;5106706;28;20219;-82
2023/05/16 08:43:48;;;;;;;4.07;1.20;;;16.00;99.90;;;;;;5096262;28;20287;-83
2023/05/16 08:46:21;;;;;;;5.05;1.10;;;15.60;99.90;;;;;;5096178;28;20197;-83
2023/05/16 08:48:51;;;;;;;5.60;1.30;;;15.50;99.90;;;;;;5096310;28;20249;-83
2023/05/16 08:51:21;;;;;;;5.03;1.08;;;15.40;99.90;;;;;;5096379;28;20775;-82
2023/05/16 08:53:54;;;;;;;5.20;1.25;;;15.60;99.90;;;;;;5096088;28;20514;-82
2023/05/16 08:56:22;;;;;;;7.72;1.30;;;15.80;99.90;;;;;;5096660;28;20204;-81
2023/05/16 08:58:50;;;;;;;7.55;1.52;;;16.00;99.90;;;;;;5096576;28;20282;-81
2023/05/16 09:01:19;;;;;;;8.65;1.50;;;15.80;99.90;;;;;;5095601;28;20292;-83
2023/05/16 09:03:46;;;;;;;5.30;1.33;;;15.80;99.90;;;;;;5095922;28;20224;-82
2023/05/16 09:06:14;;;;;;;5.68;1.15;;;15.80;99.90;;;;;;5095924;28;20196;-86
2023/05/16 09:08:43;;;;;;;5.55;1.42;;;15.80;99.90;;;;;;5100393;28;20207;-83
2023/05/16 09:11:10;;;;;;;6.03;1.25;;;15.80;99.90;;;;;;5116614;28;20231;-84
2023/05/16 09:13:37;;;;;;;5.03;1.73;;;15.70;99.90;;;;;;5115815;28;20558;-82
2023/05/16 09:16:12;;;;;;;4.55;1.60;;;15.50;99.90;;;;;;5116606;28;20270;-82
2023/05/16 09:18:39;;;;;;;8.57;1.60;;;15.50;99.90;;;;;;5116378;28;20231;-88
2023/05/16 09:21:07;;;;;;;3.45;1.23;;;15.80;99.90;;;;;;5114906;28;20295;-83
2023/05/16 09:23:35;;;;;;;5.30;1.40;;;16.10;99.90;;;;;;5114907;28;20763;-85
2023/05/16 09:26:06;;;;;;;5.55;1.25;;;16.10;99.90;;;;;;5116281;28;20707;-89
2023/05/16 09:28:33;;;;;;;5.15;1.50;;;16.10;99.90;;;;;;5115301;28;20203;-83
2023/05/16 09:31:01;;;;;;;3.30;1.02;;;15.90;99.90;;;;;;5115780;28;20277;-83
2023/05/16 09:33:28;;;;;;;3.20;1.25;;;16.00;99.90;;;;;;5116156;28;20195;-84
2023/05/16 09:35:57;;;;;;;4.15;1.23;;;16.20;99.90;;;;;;5115085;28;20252;-85
2023/05/16 09:38:26;;;;;;;5.88;1.30;;;16.60;99.90;;;;;;5096872;28;20204;-82
2023/05/16 09:40:52;;;;;;;5.57;1.55;;;16.90;99.90;;;;;;5095489;28;20197;-81
2023/05/16 09:43:25;;;;;;;4.32;1.30;;;16.70;99.90;;;;;;5116873;27;20276;-83
2023/05/16 09:45:52;;;;;;;3.33;1.33;;;16.70;99.90;;;;;;5136640;27;20633;-85
2023/05/16 09:48:22;;;;;;;7.60;1.25;;;16.60;99.90;;;;;;5136611;27;20640;-86
2023/05/16 09:50:51;;;;;;;8.38;1.48;;;16.40;99.90;;;;;;5136477;27;20223;-87
2023/05/16 09:53:18;;;;;;;5.57;1.38;;;16.20;99.90;;;;;;5104672;27;20515;-80
2023/05/16 09:55:45;;;;;;;6.72;1.75;;;16.10;99.90;;;;;;5095637;28;20197;-85
2023/05/16 09:58:12;;;;;;;6.55;1.35;;;16.20;99.90;;;;;;5102326;28;20207;-85
2023/05/16 10:00:41;;;;;;;5.13;1.45;;;16.20;99.90;;;;;;5115832;28;20217;-80
2023/05/16 10:03:08;;;;;;;3.85;1.33;;;16.30;99.90;;;;;;5115336;28;20284;-81
2023/05/16 10:05:36;;;;;;;7.40;1.02;;;16.50;99.90;;;;;;5114237;28;20208;-86
2023/05/16 10:08:04;;;;;;;4.95;1.33;;;16.80;99.90;;;;;;5115538;28;20283;-85
2023/05/16 10:10:36;;;;;;;5.13;1.20;;;17.00;99.90;;;;;;5115545;28;20200;-85
2023/05/16 10:13:06;;;;;;;6.13;1.65;;;17.10;99.90;;;;;;5115654;28;20268;-82
2023/05/16 10:15:34;;;;;;;4.13;1.40;;;17.30;99.90;;;;;;5095061;28;20520;-87
2023/05/16 10:18:03;;;;;;;4.95;1.40;;;17.30;99.90;;;;;;5095500;28;20289;-83
2023/05/16 10:20:30;;;;;;;3.47;1.40;;;17.50;99.90;;;;;;5096451;28;20299;-89
2023/05/16 10:22:58;;;;;;;5.57;1.02;;;17.20;99.90;;;;;;5094307;28;20199;-82
2023/05/16 10:25:29;;;;;;;5.45;1.20;;;17.20;99.90;;;;;;5094733;28;20203;-84
2023/05/16 10:27:57;;;;;;;4.88;1.33;;;17.20;99.90;;;;;;5106630;28;20206;-85
2023/05/16 10:30:23;;;;;;;4.75;1.30;;;17.30;99.90;;;;;;5115258;28;20489;-88
2023/05/16 10:32:53;;;;;;;9.07;1.40;;;17.40;99.90;;;;;;5114954;28;20188;-82
2023/05/16 10:35:21;;;;;;;4.80;1.60;;;17.60;99.90;;;;;;5114860;28;20203;-86
2023/05/16 10:37:49;;;;;;;6.60;1.60;;;17.60;99.90;;;;;;5111958;28;20192;-84
2023/05/16 10:40:17;;;;;;;5.05;1.23;;;17.50;99.90;;;;;;5115036;28;20252;-82
2023/05/16 10:42:54;;;;;;;4.40;1.27;;;17.30;99.90;;;;;;5115004;28;20223;-85
2023/05/16 10:45:22;;;;;;;5.63;1.23;;;17.40;99.90;;;;;;5115200;28;20191;-87
2023/05/16 10:47:53;;;;;;;6.60;1.20;;;17.40;99.90;;;;;;5115937;28;20279;-84
2023/05/16 10:50:38;;;;;;;6.80;1.38;;;17.30;99.90;;;;;;5115686;28;20207;-84
2023/05/16 10:53:30;;;;;;;4.13;1.10;;;17.30;99.90;;;;;;5115646;28;20498;-87
2023/05/16 10:56:08;;;;;;;6.53;1.10;;;17.40;99.90;;;;;;5112403;28;20564;-87
2023/05/16 10:58:47;;;;;;;5.15;1.20;;;17.60;99.90;;;;;;5115186;28;20508;-89
2023/05/16 11:01:22;;;;;;;4.50;1.20;;;17.70;99.90;;;;;;5115396;28;20204;-86
2023/05/16 11:04:09;;;;;;;4.38;1.40;;;17.70;99.90;;;;;;5115202;28;20200;-79
2023/05/16 11:06:46;;;;;;;4.95;1.40;;;17.90;99.90;;;;;;5114153;28;20188;-82
2023/05/16 11:09:24;;;;;;;4.90;1.13;;;17.90;99.90;;;;;;5112106;28;20211;-83
2023/05/16 11:12:05;;;;;;;6.80;1.50;;;18.10;99.90;;;;;;5111733;28;20287;-86
2023/05/16 11:14:38;;;;;;;5.88;1.05;;;18.20;99.90;;;;;;5110585;28;20184;-87
2023/05/16 11:17:08;;;;;;;4.38;1.15;;;18.30;99.90;;;;;;5108103;28;20310;-82
2023/05/16 11:19:39;;;;;;;5.28;1.30;;;18.40;99.90;;;;;;5102683;28;20216;-85
2023/05/16 11:22:28;;;;;;;6.40;1.25;;;18.40;99.90;;;;;;5109794;28;20659;-81
2023/05/16 11:25:02;;;;;;;5.47;1.40;;;18.40;99.90;;;;;;5108102;28;20208;-82
2023/05/16 11:27:35;;;;;;;4.63;1.02;;;18.50;99.90;;;;;;5112007;28;20205;-81
2023/05/16 11:30:16;;;;;;;4.13;1.20;;;18.40;99.90;;;;;;5108380;28;20539;-80
2023/05/16 11:32:48;;;;;;;4.97;1.40;;;18.40;99.90;;;;;;5110193;28;20619;-78
2023/05/16 11:35:17;;;;;;;5.68;1.30;;;18.60;99.90;;;;;;5111004;28;20199;-81
2023/05/16 11:37:47;;;;;;;6.47;1.15;;;18.40;99.90;;;;;;5113667;28;20214;-88
2023/05/16 11:40:15;;;;;;;4.35;1.33;;;18.30;99.90;;;;;;5112453;28;20282;-85
2023/05/16 11:42:47;;;;;;;7.00;1.17;;;18.20;99.90;;;;;;5111627;28;20214;-79
2023/05/16 11:45:19;;;;;;;5.00;1.60;;;18.20;99.90;;;;;;5111041;28;20518;-89
2023/05/16 11:47:51;;;;;;;5.00;1.30;;;18.20;99.90;;;;;;5108310;28;20207;-87
2023/05/16 11:50:23;;;;;;;4.38;1.10;;;18.10;99.90;;;;;;5110148;28;20199;-87
2023/05/16 11:52:54;;;;;;;5.70;1.52;;;18.20;99.90;;;;;;5113542;28;20643;-80
2023/05/16 11:55:23;;;;;;;5.25;1.27;;;18.20;99.90;;;;;;5113839;28;20235;-85
2023/05/16 11:57:52;;;;;;;6.10;1.40;;;17.90;99.90;;;;;;5114150;28;20199;-81
2023/05/16 12:00:23;;;;;;;4.05;1.20;;;18.10;99.90;;;;;;5113628;28;20235;-84
2023/05/16 12:02:50;;;;;;;5.78;1.38;;;18.10;99.90;;;;;;5109304;28;20280;-80
2023/05/16 12:05:20;;;;;;;5.10;1.00;;;18.00;99.90;;;;;;5092807;28;20204;-90
2023/05/16 12:07:48;;;;;;;2.97;1.23;;;17.90;99.90;;;;;;5092496;28;20340;-83
2023/05/16 12:10:16;;;;;;;5.30;1.13;;;18.10;99.90;;;;;;5099492;28;20628;-88
2023/05/16 12:12:46;;;;;;;4.75;1.10;;;18.10;99.90;;;;;;5114367;28;20640;-85
2023/05/16 12:15:14;;;;;;;4.45;1.30;;;18.30;99.90;;;;;;5114331;28;20210;-87
2023/05/16 12:17:42;;;;;;;5.22;1.63;;;18.30;99.90;;;;;;5114391;28;20208;-82
2023/05/16 12:20:12;;;;;;;7.38;1.40;;;18.50;99.90;;;;;;5114492;28;20206;-86
2023/05/16 12:22:40;;;;;;;5.40;1.10;;;18.50;99.90;;;;;;5114165;28;20469;-86
2023/05/16 12:25:26;;;;;;;2.88;0.95;;;18.50;99.90;;;;;;5114692;28;20208;-89
2023/05/16 12:27:53;;;;;;;3.03;1.10;;;18.20;99.90;;;;;;5114455;28;20223;-86
2023/05/16 12:30:24;;;;;;;4.57;1.23;;;18.20;99.90;;;;;;5118291;28;20184;-82
2023/05/16 12:32:56;;;;;;;4.03;1.10;;;18.30;99.90;;;;;;5118146;28;20223;-86
2023/05/16 12:35:23;;;;;;;2.80;1.10;;;18.20;99.90;;;;;;5118079;28;20518;-87
2023/05/16 12:37:51;;;;;;;4.68;1.08;;;18.20;99.90;;;;;;5117714;28;20211;-84
2023/05/16 12:40:19;;;;;;;3.20;1.10;;;18.10;99.90;;;;;;5118261;28;20203;-87
2023/05/16 12:42:50;;;;;;;4.78;1.38;;;18.20;99.90;;;;;;5117795;28;20873;-87
2023/05/16 12:45:17;;;;;;;2.05;0.80;;;18.40;99.90;;;;;;5116857;28;20200;-79
2023/05/16 12:47:44;;;;;;;2.80;0.90;;;18.50;99.90;;;;;;5116813;28;20211;-82
2023/05/16 12:50:13;;;;;;;2.70;0.93;;;18.50;99.90;;;;;;5116380;28;20210;-83
2023/05/16 12:52:49;;;;;;;5.45;0.93;;;18.60;99.90;;;;;;5115191;28;20238;-82
2023/05/16 12:55:16;;;;;;;6.65;1.92;;;18.60;99.90;;;;;;5116270;28;20187;-83